Time;durP1;ratioP1;P1;durP2;ratioP2;P2;SDS_P1;SDS_P2;PMS_P1;PMS_P2;Temp;Humidity;BMP_temperature;BMP_pressure;BME280_temperature;BME280_humidity;BME280_pressure;Samples;Min_cycle;Max_cycle;Signal;HPM_P1;HPM_P2
2021/12/31 00:02:20;;;;;;;2.88;1.50;;;14.30;99.90;;;;;;5077707;28;20025;-59
2021/12/31 00:04:46;;;;;;;4.97;1.88;;;14.30;99.90;;;;;;5078474;28;20029;-59
2021/12/31 00:07:13;;;;;;;5.63;1.40;;;14.30;99.90;;;;;;5078408;28;20032;-59
2021/12/31 00:09:39;;;;;;;6.35;1.60;;;14.30;99.90;;;;;;5078387;28;20021;-59
2021/12/31 00:12:07;;;;;;;5.80;2.03;;;14.30;99.90;;;;;;5078278;28;20029;-59
2021/12/31 00:14:35;;;;;;;5.13;1.65;;;14.30;99.90;;;;;;5078604;28;20036;-59
2021/12/31 00:17:01;;;;;;;5.13;1.45;;;14.30;99.90;;;;;;5078388;28;20051;-58
2021/12/31 00:19:30;;;;;;;4.22;1.30;;;14.20;99.90;;;;;;5078046;28;20029;-59
2021/12/31 00:21:57;;;;;;;4.45;1.55;;;14.20;99.90;;;;;;5078028;28;20029;-59
2021/12/31 00:24:25;;;;;;;6.30;1.90;;;14.20;99.90;;;;;;5078023;28;20024;-60
2021/12/31 00:26:51;;;;;;;4.40;1.58;;;14.30;99.90;;;;;;5078366;28;20423;-59
2021/12/31 00:29:17;;;;;;;4.38;1.50;;;14.20;99.90;;;;;;5077330;28;20352;-59
2021/12/31 00:31:43;;;;;;;4.35;1.63;;;14.30;99.90;;;;;;5078041;28;20039;-59
2021/12/31 00:34:09;;;;;;;8.38;1.40;;;14.20;99.90;;;;;;5077888;28;20064;-59
2021/12/31 00:36:45;;;;;;;4.80;1.70;;;14.20;99.90;;;;;;5077719;28;20044;-59
2021/12/31 00:39:14;;;;;;;5.25;2.13;;;14.30;99.90;;;;;;5077721;28;20036;-58
2021/12/31 00:41:41;;;;;;;5.53;1.58;;;14.20;99.90;;;;;;5077742;28;20040;-59
2021/12/31 00:44:08;;;;;;;6.18;1.63;;;14.20;99.90;;;;;;5078052;28;20308;-59
2021/12/31 00:46:34;;;;;;;3.33;1.40;;;14.20;99.90;;;;;;5077729;28;20383;-58
2021/12/31 00:49:02;;;;;;;7.15;1.48;;;14.20;99.90;;;;;;5077683;28;20033;-59
2021/12/31 00:51:28;;;;;;;6.03;1.80;;;14.20;99.90;;;;;;5076780;28;20040;-58
2021/12/31 00:53:54;;;;;;;4.93;1.70;;;14.20;99.90;;;;;;5077749;28;20121;-58
2021/12/31 00:56:20;;;;;;;4.50;1.65;;;14.20;99.90;;;;;;5077596;28;20070;-58
2021/12/31 00:58:46;;;;;;;7.10;2.35;;;14.20;99.90;;;;;;5077547;28;20040;-58
2021/12/31 01:01:17;;;;;;;5.72;1.40;;;14.10;99.90;;;;;;5077807;28;20052;-58
2021/12/31 01:03:44;;;;;;;7.00;1.88;;;14.10;99.90;;;;;;5077542;28;20028;-58
2021/12/31 01:06:10;;;;;;;5.95;1.73;;;14.10;99.90;;;;;;5077372;28;20399;-58
2021/12/31 01:08:36;;;;;;;4.70;1.73;;;14.10;99.90;;;;;;5077480;28;20124;-58
2021/12/31 01:11:02;;;;;;;4.70;1.85;;;14.10;99.90;;;;;;5077410;28;20107;-59
2021/12/31 01:13:36;;;;;;;4.35;1.70;;;14.20;99.90;;;;;;5077227;28;20455;-59
2021/12/31 01:16:04;;;;;;;5.95;1.80;;;14.10;99.90;;;;;;5077231;28;20032;-58
2021/12/31 01:21:15;;;;;;;5.30;1.67;;;14.10;99.90;;;;;;5077647;28;20118;-58
2021/12/31 01:23:41;;;;;;;5.88;1.95;;;14.10;99.90;;;;;;5077118;28;20060;-59
2021/12/31 01:26:13;;;;;;;;;;;14.10;99.90;;;;;;5077436;28;20404;-59
2021/12/31 01:28:39;;;;;;;5.95;1.80;;;14.10;99.90;;;;;;5077033;28;20015;-59
2021/12/31 01:31:05;;;;;;;5.95;1.80;;;14.00;99.90;;;;;;5077268;28;20402;-58
2021/12/31 01:33:32;;;;;;;8.10;2.17;;;14.00;99.90;;;;;;5076887;28;20029;-58
2021/12/31 01:35:58;;;;;;;5.80;2.15;;;14.00;99.90;;;;;;5076685;28;20135;-58
2021/12/31 01:38:24;;;;;;;8.38;1.98;;;14.00;99.90;;;;;;5077172;28;20107;-59
2021/12/31 01:40:51;;;;;;;6.85;2.30;;;14.00;99.90;;;;;;5076102;28;20033;-59
2021/12/31 01:43:17;;;;;;;5.65;1.90;;;13.90;99.90;;;;;;5076320;28;20348;-59
2021/12/31 01:45:46;;;;;;;7.57;1.85;;;13.90;99.90;;;;;;5076713;28;20116;-60
2021/12/31 01:48:35;;;;;;;6.90;1.70;;;13.90;99.90;;;;;;5076875;28;20037;-59
2021/12/31 01:51:02;;;;;;;6.03;2.10;;;13.90;99.90;;;;;;5076857;28;20043;-59
2021/12/31 01:53:28;;;;;;;7.53;1.95;;;13.90;99.90;;;;;;5076739;28;20075;-59
2021/12/31 01:56:00;;;;;;;5.38;2.13;;;13.90;99.90;;;;;;5075939;28;20029;-59
2021/12/31 01:58:27;;;;;;;5.88;1.92;;;13.90;99.90;;;;;;5076336;28;20057;-59
2021/12/31 02:00:54;;;;;;;7.00;2.15;;;13.90;99.90;;;;;;5077113;28;20025;-58
2021/12/31 02:03:22;;;;;;;4.75;2.17;;;13.90;99.90;;;;;;5076313;28;20093;-58
2021/12/31 02:05:48;;;;;;;6.45;1.92;;;13.80;99.90;;;;;;5076599;28;20048;-58
2021/12/31 02:08:16;;;;;;;7.72;2.72;;;13.80;99.90;;;;;;5076768;28;20423;-59
2021/12/31 02:10:42;;;;;;;7.45;2.30;;;13.80;99.90;;;;;;5075987;28;20036;-59
2021/12/31 02:13:09;;;;;;;7.05;2.30;;;13.80;99.90;;;;;;5076530;28;20063;-59
2021/12/31 02:15:35;;;;;;;8.85;2.42;;;13.80;99.90;;;;;;5076490;28;20170;-59
2021/12/31 02:18:03;;;;;;;7.45;2.22;;;13.70;99.90;;;;;;5076534;28;20119;-59
2021/12/31 02:20:55;;;;;;;8.00;2.83;;;13.70;99.90;;;;;;5075742;28;20111;-58
2021/12/31 02:23:25;;;;;;;7.57;2.20;;;13.70;99.90;;;;;;5073797;28;20139;-58
2021/12/31 02:25:53;;;;;;;5.20;2.00;;;13.70;99.90;;;;;;5076691;28;20285;-59
2021/12/31 02:28:19;;;;;;;6.88;2.10;;;13.70;99.90;;;;;;5076449;28;20056;-59
2021/12/31 02:30:46;;;;;;;9.80;2.33;;;13.70;99.90;;;;;;5076430;28;20404;-58
2021/12/31 02:33:11;;;;;;;6.68;1.90;;;13.70;99.90;;;;;;5076301;28;20044;-59
2021/12/31 02:35:38;;;;;;;7.55;1.85;;;13.60;99.90;;;;;;5076250;28;20334;-58
2021/12/31 02:38:07;;;;;;;5.75;2.13;;;13.50;99.90;;;;;;5076388;28;20043;-59
2021/12/31 02:40:33;;;;;;;3.45;2.00;;;13.50;99.90;;;;;;5076359;28;20043;-59
2021/12/31 02:42:59;;;;;;;6.72;2.10;;;13.50;99.90;;;;;;5076172;28;20106;-59
2021/12/31 02:45:31;;;;;;;9.45;2.22;;;13.50;99.90;;;;;;5076172;28;20032;-58
2021/12/31 02:48:00;;;;;;;6.97;2.22;;;13.50;99.90;;;;;;5076287;28;20097;-59
2021/12/31 02:50:33;;;;;;;4.20;2.25;;;13.50;99.90;;;;;;5076204;28;20025;-60
2021/12/31 02:53:04;;;;;;;7.13;2.13;;;13.60;99.90;;;;;;5076276;28;20029;-58
2021/12/31 02:55:31;;;;;;;5.32;2.28;;;13.60;99.90;;;;;;5076713;28;20025;-59
2021/12/31 02:58:01;;;;;;;7.68;2.33;;;13.60;99.90;;;;;;5076190;28;20033;-59
2021/12/31 03:00:27;;;;;;;6.55;2.70;;;13.60;99.90;;;;;;5076685;28;20036;-59
2021/12/31 03:02:55;;;;;;;5.60;2.15;;;13.60;99.90;;;;;;5076398;28;20396;-59
2021/12/31 03:05:23;;;;;;;6.63;2.75;;;13.50;99.90;;;;;;5076094;28;20093;-59
2021/12/31 03:07:50;;;;;;;9.95;2.67;;;13.60;99.90;;;;;;5076630;28;20339;-59
2021/12/31 03:10:17;;;;;;;7.50;2.42;;;13.60;99.90;;;;;;5076010;28;20037;-58
2021/12/31 03:12:43;;;;;;;7.20;2.60;;;13.60;99.90;;;;;;5076229;28;20035;-58
2021/12/31 03:15:10;;;;;;;4.78;2.53;;;13.60;99.90;;;;;;5078706;28;20024;-58
2021/12/31 03:17:40;;;;;;;6.45;2.70;;;13.60;99.90;;;;;;5079154;28;20414;-58
2021/12/31 03:20:15;;;;;;;6.25;2.47;;;13.60;99.90;;;;;;5080037;28;20024;-58
2021/12/31 03:22:43;;;;;;;10.23;2.92;;;13.60;99.90;;;;;;5079344;28;20037;-59
2021/12/31 03:25:10;;;;;;;9.43;2.83;;;13.60;99.90;;;;;;5078629;28;20036;-58
2021/12/31 03:27:36;;;;;;;9.32;3.15;;;13.50;99.90;;;;;;5079304;28;20045;-58
2021/12/31 03:30:05;;;;;;;8.68;2.55;;;13.50;99.90;;;;;;5079357;28;20040;-59
2021/12/31 03:32:31;;;;;;;7.40;2.78;;;13.50;99.90;;;;;;5079435;28;20318;-59
2021/12/31 03:34:57;;;;;;;6.00;2.63;;;13.50;99.90;;;;;;5079038;28;20108;-58
2021/12/31 03:37:23;;;;;;;6.88;2.65;;;13.50;99.90;;;;;;5079498;28;20297;-59
2021/12/31 03:39:49;;;;;;;7.80;3.03;;;13.40;99.90;;;;;;5079128;28;20374;-59
2021/12/31 03:42:16;;;;;;;8.95;3.05;;;13.30;99.90;;;;;;5079016;28;20093;-60
2021/12/31 03:44:42;;;;;;;6.43;2.83;;;13.30;99.90;;;;;;5078960;28;20116;-59
2021/12/31 03:47:09;;;;;;;8.90;3.13;;;13.20;99.90;;;;;;5078904;28;20052;-59
2021/12/31 03:49:34;;;;;;;7.00;2.80;;;13.20;99.90;;;;;;5079565;28;20169;-59
2021/12/31 03:52:01;;;;;;;4.10;2.20;;;13.20;99.90;;;;;;5079049;28;20415;-58
2021/12/31 03:54:27;;;;;;;6.05;2.80;;;13.10;99.90;;;;;;5078865;28;20442;-59
2021/12/31 03:56:52;;;;;;;6.50;2.45;;;13.10;99.90;;;;;;5078713;28;20075;-59
2021/12/31 03:59:18;;;;;;;8.63;2.42;;;13.10;99.90;;;;;;5078732;28;20024;-58
2021/12/31 04:01:44;;;;;;;6.65;2.75;;;13.10;99.90;;;;;;5078679;28;20114;-58
2021/12/31 04:04:10;;;;;;;8.93;2.90;;;13.10;99.90;;;;;;5078896;28;20075;-58
2021/12/31 04:06:36;;;;;;;6.53;2.47;;;13.10;99.90;;;;;;5078550;28;20056;-58
2021/12/31 04:09:02;;;;;;;6.18;3.13;;;13.00;99.90;;;;;;5078626;28;20405;-59
2021/12/31 04:11:28;;;;;;;5.80;2.95;;;13.00;99.90;;;;;;5078564;28;20036;-59
2021/12/31 04:13:54;;;;;;;9.75;2.97;;;12.90;99.90;;;;;;5077726;28;20032;-59
2021/12/31 04:16:20;;;;;;;6.90;2.75;;;12.90;99.90;;;;;;5078357;28;20127;-59
2021/12/31 04:18:45;;;;;;;6.07;3.20;;;12.80;99.90;;;;;;5078442;28;20082;-59
2021/12/31 04:21:15;;;;;;;6.15;2.72;;;12.80;99.90;;;;;;5078320;28;20036;-59
2021/12/31 04:23:51;;;;;;;6.93;3.30;;;12.80;99.90;;;;;;5078249;28;20097;-59
2021/12/31 04:26:17;;;;;;;5.65;2.67;;;12.80;99.90;;;;;;5077231;28;20166;-59
2021/12/31 04:28:44;;;;;;;9.70;3.15;;;12.80;99.90;;;;;;5078458;28;20279;-60
2021/12/31 04:31:10;;;;;;;7.07;3.00;;;12.70;99.90;;;;;;5078126;28;20028;-59
2021/12/31 04:33:36;;;;;;;8.68;3.15;;;12.80;99.90;;;;;;5078069;28;20353;-59
2021/12/31 04:36:02;;;;;;;8.85;3.10;;;12.70;99.90;;;;;;5077357;28;20068;-58
2021/12/31 04:38:28;;;;;;;5.72;3.20;;;12.60;99.90;;;;;;5078135;28;20380;-58
2021/12/31 04:40:54;;;;;;;7.88;3.40;;;12.60;99.90;;;;;;5077932;28;20104;-57
2021/12/31 04:43:19;;;;;;;7.10;3.20;;;12.60;99.90;;;;;;5078089;28;20071;-58
2021/12/31 04:45:45;;;;;;;7.15;3.33;;;12.60;99.90;;;;;;5077863;28;20097;-58
2021/12/31 04:48:11;;;;;;;6.70;3.60;;;12.50;99.90;;;;;;5076988;28;20041;-58
2021/12/31 04:50:37;;;;;;;8.45;3.60;;;12.50;99.90;;;;;;5077534;28;20312;-57
2021/12/31 04:53:04;;;;;;;6.40;3.08;;;12.50;99.90;;;;;;5077807;28;20062;-58
2021/12/31 04:55:31;;;;;;;9.77;3.30;;;12.50;99.90;;;;;;5077528;28;20040;-59
2021/12/31 04:57:57;;;;;;;5.97;2.88;;;12.50;99.90;;;;;;5076784;28;20048;-59
2021/12/31 05:00:23;;;;;;;6.80;3.17;;;12.50;99.90;;;;;;5077618;28;20423;-59
2021/12/31 05:02:49;;;;;;;10.32;3.05;;;12.50;99.90;;;;;;5077699;28;20043;-58
2021/12/31 05:05:15;;;;;;;8.18;3.10;;;12.40;99.90;;;;;;5078042;28;20021;-61
2021/12/31 05:07:41;;;;;;;5.20;2.60;;;12.50;99.90;;;;;;5076666;28;20131;-63
2021/12/31 05:10:08;;;;;;;7.38;3.22;;;12.40;99.90;;;;;;5077392;28;20040;-61
2021/12/31 05:12:35;;;;;;;8.00;2.90;;;12.40;99.90;;;;;;5077307;28;20093;-62
2021/12/31 05:15:02;;;;;;;5.72;3.00;;;12.40;99.90;;;;;;5077304;28;20036;-62
2021/12/31 05:17:28;;;;;;;9.20;2.88;;;12.40;99.90;;;;;;5076498;28;20044;-63
2021/12/31 05:19:54;;;;;;;5.10;2.55;;;12.40;99.90;;;;;;5077860;28;20378;-63
2021/12/31 05:22:20;;;;;;;8.75;3.33;;;12.40;99.90;;;;;;5077114;28;20036;-62
2021/12/31 05:24:45;;;;;;;5.50;2.53;;;12.30;99.90;;;;;;5076500;28;20032;-62
2021/12/31 05:27:11;;;;;;;5.85;2.50;;;12.30;99.90;;;;;;5077044;28;20052;-62
2021/12/31 05:29:37;;;;;;;6.35;2.80;;;12.30;99.90;;;;;;5077156;28;20422;-61
2021/12/31 05:32:03;;;;;;;6.90;2.40;;;12.30;99.90;;;;;;5077019;28;20089;-62
2021/12/31 05:34:29;;;;;;;6.80;2.50;;;12.30;99.90;;;;;;5076888;28;20033;-62
2021/12/31 05:36:55;;;;;;;4.97;2.40;;;12.30;99.90;;;;;;5075926;28;20543;-63
2021/12/31 05:39:21;;;;;;;5.85;2.60;;;12.30;99.90;;;;;;5076948;28;20036;-61
2021/12/31 05:41:47;;;;;;;6.75;2.40;;;12.40;99.90;;;;;;5076974;28;20177;-61
2021/12/31 05:44:13;;;;;;;6.28;2.22;;;12.30;99.90;;;;;;5077190;28;20265;-62
2021/12/31 05:46:43;;;;;;;6.25;2.55;;;12.30;99.90;;;;;;5077208;28;20036;-62
2021/12/31 05:49:09;;;;;;;4.63;2.20;;;12.30;99.90;;;;;;5077017;28;20107;-62
2021/12/31 05:51:35;;;;;;;4.25;2.10;;;12.30;99.90;;;;;;5076828;28;20120;-62
2021/12/31 05:54:01;;;;;;;7.72;2.50;;;12.30;99.90;;;;;;5076712;28;20033;-62
2021/12/31 05:56:27;;;;;;;8.68;2.60;;;12.30;99.90;;;;;;5076793;28;20485;-64
2021/12/31 05:58:52;;;;;;;4.70;2.35;;;12.30;99.90;;;;;;5076655;28;20028;-63
2021/12/31 06:01:18;;;;;;;6.97;2.15;;;12.30;99.90;;;;;;5077173;28;20036;-62
2021/12/31 06:03:44;;;;;;;6.53;2.33;;;12.30;99.90;;;;;;5076773;28;20035;-62
2021/12/31 06:06:10;;;;;;;5.88;1.80;;;12.30;99.90;;;;;;5076615;28;20032;-63
2021/12/31 06:08:35;;;;;;;3.72;1.95;;;12.30;99.90;;;;;;5076649;28;20024;-62
2021/12/31 06:11:02;;;;;;;4.32;2.17;;;12.30;99.90;;;;;;5077224;28;20036;-63
2021/12/31 06:13:27;;;;;;;4.22;2.15;;;12.20;99.90;;;;;;5075645;28;20131;-63
2021/12/31 06:15:57;;;;;;;5.60;2.25;;;12.30;99.90;;;;;;5076705;28;20120;-63
2021/12/31 06:18:25;;;;;;;4.90;2.10;;;12.30;99.90;;;;;;5076801;28;20423;-62
2021/12/31 06:20:51;;;;;;;4.13;1.80;;;12.30;99.90;;;;;;5076496;28;20029;-63
2021/12/31 06:23:17;;;;;;;5.55;1.95;;;12.20;99.90;;;;;;5076336;28;20032;-63
2021/12/31 06:25:43;;;;;;;4.65;1.92;;;12.20;99.90;;;;;;5076713;28;20032;-64
2021/12/31 06:28:10;;;;;;;5.10;1.75;;;12.20;99.90;;;;;;5076677;28;20028;-63
2021/12/31 06:30:36;;;;;;;4.45;1.83;;;12.20;99.90;;;;;;5076966;28;20115;-65
2021/12/31 06:33:02;;;;;;;3.28;1.67;;;12.30;99.90;;;;;;5076327;28;20119;-63
2021/12/31 06:35:28;;;;;;;4.07;1.80;;;12.40;99.90;;;;;;5075209;28;20051;-62
2021/12/31 06:37:55;;;;;;;4.20;1.92;;;12.30;99.90;;;;;;5076678;28;20029;-63
2021/12/31 06:40:23;;;;;;;2.95;1.63;;;12.30;99.90;;;;;;5077355;28;20392;-64
2021/12/31 06:42:49;;;;;;;4.10;1.48;;;12.30;99.90;;;;;;5076522;28;20101;-63
2021/12/31 06:45:14;;;;;;;5.50;1.77;;;12.20;99.90;;;;;;5076221;28;20029;-62
2021/12/31 06:47:40;;;;;;;3.63;1.58;;;12.20;99.90;;;;;;5076820;28;20068;-60
2021/12/31 06:50:06;;;;;;;2.95;1.63;;;12.20;99.90;;;;;;5080192;28;20058;-61
2021/12/31 06:52:39;;;;;;;2.22;1.25;;;12.30;99.90;;;;;;5079882;28;20396;-61
2021/12/31 06:55:09;;;;;;;2.95;1.50;;;12.30;99.90;;;;;;5080378;28;20036;-62
2021/12/31 06:57:35;;;;;;;4.57;1.42;;;12.30;99.90;;;;;;5079823;28;20040;-63
2021/12/31 07:00:03;;;;;;;3.80;1.60;;;12.30;99.90;;;;;;5080336;28;20415;-62
2021/12/31 07:02:29;;;;;;;4.85;1.40;;;12.30;99.90;;;;;;5079696;28;20403;-62
2021/12/31 07:04:55;;;;;;;3.88;1.65;;;12.30;99.90;;;;;;5079160;28;20036;-63
2021/12/31 07:07:21;;;;;;;3.38;1.60;;;12.30;99.90;;;;;;5079947;28;20048;-64
2021/12/31 07:09:46;;;;;;;4.18;1.52;;;12.30;99.90;;;;;;5078930;28;20036;-63
2021/12/31 07:12:12;;;;;;;4.43;1.85;;;12.30;99.90;;;;;;5080148;28;20036;-62
2021/12/31 07:14:38;;;;;;;2.90;1.27;;;12.40;99.90;;;;;;5080358;28;20045;-63
2021/12/31 07:17:04;;;;;;;4.00;1.50;;;12.40;99.90;;;;;;5078588;28;20064;-62
2021/12/31 07:19:30;;;;;;;3.45;1.55;;;12.40;99.90;;;;;;5079698;28;20395;-62
2021/12/31 07:21:55;;;;;;;2.38;1.50;;;12.40;99.90;;;;;;5079434;28;20107;-63
2021/12/31 07:24:21;;;;;;;4.20;1.73;;;12.40;99.90;;;;;;5079386;28;20067;-62
2021/12/31 07:26:47;;;;;;;3.70;1.50;;;12.40;99.90;;;;;;5079573;28;20123;-62
2021/12/31 07:29:13;;;;;;;3.78;1.50;;;12.40;99.90;;;;;;5079303;28;20131;-62
2021/12/31 07:31:39;;;;;;;2.83;1.50;;;12.50;99.90;;;;;;5079306;28;20308;-62
2021/12/31 07:34:05;;;;;;;4.53;1.65;;;12.50;99.90;;;;;;5078458;28;20045;-62
2021/12/31 07:36:30;;;;;;;1.95;1.50;;;12.40;99.90;;;;;;5079009;28;20041;-64
2021/12/31 07:39:03;;;;;;;5.10;1.70;;;12.50;99.90;;;;;;5078369;28;20303;-63
2021/12/31 07:41:29;;;;;;;2.65;1.50;;;12.50;99.90;;;;;;5079221;28;20039;-63
2021/12/31 07:43:55;;;;;;;4.55;1.60;;;12.40;99.90;;;;;;5079169;28;20108;-62
2021/12/31 07:46:21;;;;;;;4.35;1.63;;;12.40;99.90;;;;;;5079150;28;20043;-61
2021/12/31 07:48:47;;;;;;;2.75;1.65;;;12.40;99.90;;;;;;5078901;28;20045;-62
2021/12/31 07:51:14;;;;;;;3.55;1.70;;;12.30;99.90;;;;;;5079587;28;20078;-61
2021/12/31 07:53:40;;;;;;;2.05;1.50;;;12.30;99.90;;;;;;5078926;28;20086;-62
2021/12/31 07:56:05;;;;;;;2.97;1.83;;;12.30;99.90;;;;;;5078891;28;20032;-62
2021/12/31 07:58:31;;;;;;;1.85;1.48;;;12.30;99.90;;;;;;5078762;28;20039;-61
2021/12/31 08:00:57;;;;;;;2.15;1.50;;;12.30;99.90;;;;;;5078445;28;20033;-62
2021/12/31 08:03:23;;;;;;;3.25;1.80;;;12.20;99.90;;;;;;5078746;28;20036;-63
2021/12/31 08:05:48;;;;;;;5.18;1.63;;;12.30;99.90;;;;;;5077862;28;20103;-62
2021/12/31 08:08:14;;;;;;;5.40;1.70;;;12.30;99.90;;;;;;5078457;28;20281;-62
2021/12/31 08:10:40;;;;;;;5.43;1.75;;;12.30;99.90;;;;;;5078588;28;20103;-62
2021/12/31 08:13:06;;;;;;;2.90;1.70;;;12.20;99.90;;;;;;5078900;28;20032;-61
2021/12/31 08:15:32;;;;;;;4.50;1.80;;;12.20;99.90;;;;;;5078466;28;20021;-61
2021/12/31 08:17:58;;;;;;;4.28;1.80;;;12.20;99.90;;;;;;5078503;28;20053;-61
2021/12/31 08:20:24;;;;;;;4.03;1.50;;;12.30;99.90;;;;;;5077686;28;20029;-62
2021/12/31 08:22:51;;;;;;;2.90;1.70;;;12.30;99.90;;;;;;5077830;28;20055;-61
2021/12/31 08:25:17;;;;;;;4.68;1.80;;;12.20;99.90;;;;;;5078607;28;20117;-61
2021/12/31 08:27:43;;;;;;;2.63;1.65;;;12.20;99.90;;;;;;5078397;28;20032;-63
2021/12/31 08:30:10;;;;;;;3.15;1.67;;;12.20;99.90;;;;;;5078336;28;20043;-62
2021/12/31 08:32:37;;;;;;;2.80;1.50;;;12.30;99.90;;;;;;5078081;28;20028;-63
2021/12/31 08:35:04;;;;;;;5.03;1.83;;;12.30;99.90;;;;;;5077931;28;20028;-62
2021/12/31 08:37:30;;;;;;;3.22;1.90;;;12.30;99.90;;;;;;5078095;28;20052;-61
2021/12/31 08:39:57;;;;;;;3.13;1.70;;;12.30;99.90;;;;;;5078166;28;20099;-61
2021/12/31 08:42:23;;;;;;;3.33;1.60;;;12.20;99.90;;;;;;5077989;28;20342;-61
2021/12/31 08:44:49;;;;;;;3.70;1.48;;;12.20;99.90;;;;;;5077981;28;20098;-66
2021/12/31 08:47:15;;;;;;;4.07;1.60;;;12.20;99.90;;;;;;5077985;28;20037;-63
2021/12/31 08:49:41;;;;;;;4.18;1.77;;;12.30;99.90;;;;;;5077822;28;20036;-61
2021/12/31 08:52:07;;;;;;;3.30;1.65;;;12.30;99.90;;;;;;5077812;28;20047;-60
2021/12/31 08:54:33;;;;;;;3.10;1.50;;;12.30;99.90;;;;;;5077654;28;20368;-60
2021/12/31 08:57:00;;;;;;;3.53;1.48;;;12.40;99.90;;;;;;5077591;28;20040;-62
2021/12/31 08:59:27;;;;;;;3.05;1.42;;;12.40;99.90;;;;;;5077639;28;20040;-62
2021/12/31 09:01:53;;;;;;;5.05;1.65;;;12.40;99.90;;;;;;5077665;28;20051;-62
2021/12/31 09:04:18;;;;;;;3.15;1.60;;;12.40;99.90;;;;;;5076627;28;20020;-63
2021/12/31 09:06:44;;;;;;;5.30;1.95;;;12.40;99.90;;;;;;5077279;28;20053;-62
2021/12/31 09:09:10;;;;;;;3.08;1.77;;;12.50;99.90;;;;;;5077267;28;20047;-62
2021/12/31 09:11:36;;;;;;;5.53;2.28;;;12.40;99.90;;;;;;5077305;28;20412;-61
2021/12/31 09:14:02;;;;;;;2.45;1.70;;;12.40;99.90;;;;;;5076737;28;20395;-62
2021/12/31 09:16:28;;;;;;;2.65;1.70;;;12.40;99.90;;;;;;5077209;28;20142;-63
2021/12/31 09:18:54;;;;;;;2.60;1.70;;;12.40;99.90;;;;;;5077474;28;20058;-61
2021/12/31 09:21:22;;;;;;;4.72;1.90;;;12.40;99.90;;;;;;5077188;28;20036;-62
2021/12/31 09:23:48;;;;;;;2.83;1.83;;;12.40;99.90;;;;;;5077382;28;20029;-62
2021/12/31 09:26:15;;;;;;;4.20;1.60;;;12.40;99.90;;;;;;5077196;28;20380;-62
2021/12/31 09:28:42;;;;;;;3.67;1.60;;;12.40;99.90;;;;;;5077344;28;20024;-62
2021/12/31 09:31:09;;;;;;;4.50;1.73;;;12.50;99.90;;;;;;5077681;28;20110;-62
2021/12/31 09:33:35;;;;;;;3.35;1.83;;;12.40;99.90;;;;;;5077102;28;20029;-62
2021/12/31 09:36:01;;;;;;;3.05;1.90;;;12.40;99.90;;;;;;5076718;28;20044;-63
2021/12/31 09:38:27;;;;;;;6.15;2.00;;;12.40;99.90;;;;;;5077002;28;20032;-64
2021/12/31 09:40:53;;;;;;;8.20;2.20;;;12.40;99.90;;;;;;5076940;28;20044;-63
2021/12/31 09:43:20;;;;;;;3.20;1.80;;;12.40;99.90;;;;;;5077204;28;20050;-63
2021/12/31 09:45:47;;;;;;;6.13;2.03;;;12.40;99.90;;;;;;5076994;28;20048;-63
2021/12/31 09:48:22;;;;;;;4.53;2.08;;;12.40;99.90;;;;;;5077015;28;20299;-64
2021/12/31 09:50:51;;;;;;;3.35;1.92;;;12.40;99.90;;;;;;5076948;28;20025;-64
2021/12/31 09:53:18;;;;;;;3.30;1.80;;;12.50;99.90;;;;;;5076901;28;20399;-61
2021/12/31 09:55:47;;;;;;;4.18;1.63;;;12.50;99.90;;;;;;5076778;28;20067;-62
2021/12/31 09:58:15;;;;;;;4.05;1.83;;;12.50;99.90;;;;;;5076725;28;20032;-65
2021/12/31 10:00:47;;;;;;;3.65;1.88;;;12.50;99.90;;;;;;5076136;28;20073;-64
2021/12/31 10:03:22;;;;;;;2.85;1.92;;;12.60;99.90;;;;;;5076754;28;20017;-64
2021/12/31 10:05:52;;;;;;;4.05;1.75;;;12.60;99.90;;;;;;5076731;28;20410;-64
2021/12/31 10:08:25;;;;;;;5.22;2.13;;;12.70;99.90;;;;;;5076727;28;20041;-62
2021/12/31 10:11:20;;;;;;;3.50;1.70;;;12.80;99.90;;;;;;5076647;28;20016;-63
2021/12/31 10:13:55;;;;;;;3.55;1.98;;;12.90;99.90;;;;;;5076922;28;20029;-63
2021/12/31 10:16:25;;;;;;;3.90;1.83;;;12.90;99.90;;;;;;5076687;28;20127;-65
2021/12/31 10:19:04;;;;;;;4.85;1.75;;;13.10;99.90;;;;;;5076570;28;20025;-61
2021/12/31 10:21:51;;;;;;;2.90;1.88;;;13.20;99.90;;;;;;5076586;28;20029;-62
2021/12/31 10:24:23;;;;;;;4.20;1.73;;;13.20;99.90;;;;;;5079798;28;20024;-62
2021/12/31 10:26:50;;;;;;;;;;;13.30;99.90;;;;;;5080228;28;20025;-63
2021/12/31 10:29:16;;;;;;;4.80;1.90;;;13.30;99.90;;;;;;5080551;28;19905;-62
2021/12/31 10:31:43;;;;;;;1.85;1.30;;;13.30;99.90;;;;;;5079692;28;20036;-62
2021/12/31 10:34:29;;;;;;;3.85;1.45;;;13.30;99.90;;;;;;5080397;28;20099;-64
2021/12/31 10:36:57;;;;;;;2.58;1.73;;;13.40;99.90;;;;;;5080108;28;20068;-64
2021/12/31 10:39:25;;;;;;;3.15;1.60;;;13.30;99.90;;;;;;5080261;28;20021;-64
2021/12/31 10:42:13;;;;;;;3.95;1.70;;;13.20;99.90;;;;;;5080288;28;20096;-62
2021/12/31 10:44:51;;;;;;;3.10;1.65;;;13.00;99.90;;;;;;5080278;28;20040;-62
2021/12/31 10:47:20;;;;;;;3.35;1.70;;;13.00;99.90;;;;;;5080169;28;20025;-62
2021/12/31 10:50:11;;;;;;;2.65;1.50;;;13.10;99.90;;;;;;5080163;28;20118;-63
2021/12/31 10:52:55;;;;;;;2.15;1.40;;;13.20;99.90;;;;;;5080070;28;20123;-64
2021/12/31 10:55:27;;;;;;;2.85;1.55;;;13.20;99.90;;;;;;5080017;28;20032;-62
2021/12/31 10:57:58;;;;;;;3.30;1.85;;;13.20;99.90;;;;;;5080345;28;20024;-63
2021/12/31 11:00:42;;;;;;;5.40;1.88;;;13.20;99.90;;;;;;5079312;28;20033;-64
2021/12/31 11:03:10;;;;;;;4.50;1.73;;;13.20;99.90;;;;;;5079082;28;20021;-64
2021/12/31 11:05:36;;;;;;;2.38;1.60;;;13.20;99.90;;;;;;5079817;28;20300;-62
2021/12/31 11:08:13;;;;;;;2.28;1.60;;;13.30;99.90;;;;;;5079659;28;20149;-63
2021/12/31 11:10:39;;;;;;;2.88;1.70;;;13.20;99.90;;;;;;5079770;28;20033;-64
2021/12/31 11:13:20;;;;;;;3.42;1.90;;;13.20;99.90;;;;;;5079709;28;20410;-62
2021/12/31 11:15:52;;;;;;;3.67;1.77;;;13.20;99.90;;;;;;5080143;28;20036;-64
2021/12/31 11:18:23;;;;;;;2.40;1.90;;;13.30;99.90;;;;;;5079378;28;20439;-61
2021/12/31 11:20:55;;;;;;;2.03;1.52;;;13.30;99.90;;;;;;5079664;28;20024;-62
2021/12/31 11:23:29;;;;;;;3.88;1.80;;;13.30;99.90;;;;;;5079604;28;20032;-62
2021/12/31 11:26:05;;;;;;;3.38;1.70;;;13.30;99.90;;;;;;5079589;28;20384;-62
2021/12/31 11:28:33;;;;;;;3.45;1.70;;;13.40;99.90;;;;;;5079534;28;20028;-62
2021/12/31 11:31:18;;;;;;;4.05;1.95;;;13.40;99.90;;;;;;5079522;28;20099;-63
2021/12/31 11:33:56;;;;;;;2.65;1.70;;;13.50;99.90;;;;;;5079012;28;20017;-63
2021/12/31 11:36:37;;;;;;;3.50;1.55;;;13.50;99.90;;;;;;5078754;28;20056;-63
2021/12/31 11:39:16;;;;;;;3.55;2.10;;;13.60;99.90;;;;;;5079470;28;20388;-63
2021/12/31 11:41:43;;;;;;;4.25;1.63;;;13.80;99.90;;;;;;5079497;28;20391;-63
2021/12/31 11:44:13;;;;;;;6.18;2.08;;;13.80;99.90;;;;;;5079293;28;20020;-61
2021/12/31 11:46:47;;;;;;;3.35;1.77;;;13.60;99.90;;;;;;5079211;28;20036;-61
2021/12/31 11:49:28;;;;;;;6.18;1.58;;;13.70;99.90;;;;;;5079288;28;20041;-61
2021/12/31 11:52:08;;;;;;;2.78;1.45;;;13.70;99.90;;;;;;5078381;28;20140;-62
2021/12/31 11:54:36;;;;;;;4.07;1.60;;;14.00;99.90;;;;;;5079130;28;20047;-61
2021/12/31 11:57:04;;;;;;;2.65;1.60;;;14.30;99.90;;;;;;5078090;28;20024;-61
2021/12/31 11:59:36;;;;;;;4.20;1.95;;;14.60;99.90;;;;;;5079672;28;20384;-62
2021/12/31 12:02:33;;;;;;;3.30;1.52;;;14.60;99.90;;;;;;5079007;28;20107;-62
2021/12/31 12:04:58;;;;;;;2.80;1.63;;;14.50;99.90;;;;;;5066215;28;20311;-61
2021/12/31 12:07:46;;;;;;;3.08;1.67;;;14.60;99.90;;;;;;5078122;28;20043;-62
2021/12/31 12:10:14;;;;;;;2.58;1.70;;;14.60;99.90;;;;;;5078791;28;20036;-64
2021/12/31 12:12:43;;;;;;;3.42;1.50;;;14.80;99.90;;;;;;5078726;28;20035;-62
2021/12/31 12:15:15;;;;;;;4.78;1.70;;;15.00;99.90;;;;;;5078675;28;20029;-61
2021/12/31 12:17:45;;;;;;;4.32;1.55;;;15.00;99.90;;;;;;5078610;28;20079;-60
2021/12/31 12:20:19;;;;;;;4.13;1.70;;;14.80;99.90;;;;;;5078599;28;20338;-63
2021/12/31 12:22:56;;;;;;;3.70;1.75;;;14.80;99.90;;;;;;5078598;28;20363;-63
2021/12/31 12:25:33;;;;;;;4.55;1.70;;;14.70;99.90;;;;;;5078552;28;20108;-63
2021/12/31 12:28:09;;;;;;;1.92;1.52;;;14.70;99.90;;;;;;5078600;28;20032;-62
2021/12/31 12:30:42;;;;;;;2.15;1.33;;;14.80;99.90;;;;;;5078698;28;20433;-63
2021/12/31 12:35:39;;;;;;;3.97;1.40;;;15.00;99.90;;;;;;5078115;28;19916;-63
2021/12/31 12:38:25;;;;;;;2.38;1.50;;;15.00;99.90;;;;;;5077443;28;20415;-64
2021/12/31 12:41:09;;;;;;;4.72;1.67;;;15.00;99.90;;;;;;5078575;28;20388;-65
2021/12/31 12:43:46;;;;;;;2.55;1.70;;;15.20;99.90;;;;;;5078277;28;20028;-64
2021/12/31 12:46:14;;;;;;;3.67;1.90;;;15.10;99.90;;;;;;5077724;28;20047;-65
2021/12/31 12:48:46;;;;;;;3.53;1.77;;;15.00;99.90;;;;;;5077949;28;20052;-61
2021/12/31 12:51:14;;;;;;;4.95;2.00;;;14.80;99.90;;;;;;5078136;28;20392;-62
2021/12/31 12:53:42;;;;;;;3.33;1.73;;;14.70;99.90;;;;;;5077117;28;20365;-63
2021/12/31 12:56:12;;;;;;;2.28;1.92;;;14.80;99.90;;;;;;5077715;28;20090;-64
2021/12/31 12:58:53;;;;;;;5.85;1.90;;;15.00;99.90;;;;;;5077613;28;20120;-64
2021/12/31 13:01:35;;;;;;;3.97;1.90;;;15.20;99.90;;;;;;5077392;28;20035;-62